createdAt,value
2017-11-17T00:00:25.289Z,0.00
2017-11-17T00:01:25.209Z,0.00
2017-11-17T00:02:25.119Z,0.00
2017-11-17T00:03:25.026Z,0.00
2017-11-17T00:04:24.945Z,0.00
2017-11-17T00:05:24.855Z,0.00
2017-11-17T00:06:24.761Z,0.00
2017-11-17T00:07:24.675Z,0.00
2017-11-17T00:08:24.597Z,0.00
2017-11-17T00:09:24.508Z,0.00
2017-11-17T00:10:24.417Z,0.00
2017-11-17T00:11:24.326Z,0.00
2017-11-17T00:12:24.246Z,0.00
2017-11-17T00:13:24.159Z,0.00
2017-11-17T00:14:24.065Z,0.00
2017-11-17T00:15:23.967Z,0.00
2017-11-17T00:16:23.883Z,0.00
2017-11-17T00:17:23.791Z,0.00
2017-11-17T00:18:23.704Z,0.00
2017-11-17T00:19:23.620Z,0.00
2017-11-17T00:20:23.532Z,0.00
2017-11-17T00:21:23.442Z,0.00
2017-11-17T00:22:23.356Z,0.00
2017-11-17T00:23:23.265Z,0.00
2017-11-17T00:24:23.183Z,0.00
2017-11-17T00:25:23.096Z,0.00
2017-11-17T00:26:22.997Z,0.00
2017-11-17T00:27:22.918Z,0.00
2017-11-17T00:28:22.834Z,0.00
2017-11-17T00:29:22.743Z,0.00
2017-11-17T00:30:22.650Z,0.00
2017-11-17T00:31:22.559Z,0.00
2017-11-17T00:32:22.473Z,0.00
2017-11-17T00:33:22.387Z,0.00
2017-11-17T00:34:22.297Z,0.00
2017-11-17T00:35:22.212Z,0.00
2017-11-17T00:36:22.122Z,0.00
2017-11-17T00:37:22.050Z,0.00
2017-11-17T00:38:21.950Z,0.00
2017-11-17T00:39:21.868Z,0.00
2017-11-17T00:40:21.786Z,0.00
2017-11-17T00:41:21.693Z,0.00
2017-11-17T00:42:21.595Z,0.00
2017-11-17T00:43:21.529Z,0.00
2017-11-17T00:44:21.428Z,0.00
2017-11-17T00:45:21.333Z,0.00
2017-11-17T00:46:21.248Z,0.00
2017-11-17T00:47:21.158Z,0.00
2017-11-17T00:48:21.062Z,0.00
2017-11-17T00:49:20.982Z,0.00
2017-11-17T00:50:20.896Z,0.00
2017-11-17T00:51:20.835Z,0.00
2017-11-17T00:52:20.726Z,0.00
2017-11-17T00:53:20.627Z,0.00
2017-11-17T00:54:20.556Z,0.00
2017-11-17T00:55:20.457Z,0.00
2017-11-17T00:56:20.367Z,0.00
2017-11-17T00:57:20.269Z,0.00
2017-11-17T00:58:20.242Z,0.00
2017-11-17T00:59:20.092Z,0.00
2017-11-17T01:00:20.000Z,0.00
2017-11-17T01:01:19.913Z,0.00
2017-11-17T01:02:19.827Z,0.00
2017-11-17T01:03:19.740Z,0.00
2017-11-17T01:04:19.662Z,0.00
2017-11-17T01:05:19.579Z,0.00
2017-11-17T01:06:19.481Z,0.00
2017-11-17T01:07:19.383Z,0.00
2017-11-17T01:08:19.323Z,0.00
2017-11-17T01:09:19.218Z,0.00
2017-11-17T01:10:19.126Z,0.00
2017-11-17T01:11:19.039Z,0.00
2017-11-17T01:12:18.944Z,0.00
2017-11-17T01:13:18.865Z,0.00
2017-11-17T01:14:18.769Z,0.00
2017-11-17T01:15:18.678Z,0.00
2017-11-17T01:16:18.592Z,0.00
2017-11-17T01:17:18.496Z,0.00
2017-11-17T01:18:18.431Z,0.00
2017-11-17T01:19:18.326Z,0.00
2017-11-17T01:20:18.244Z,0.00
2017-11-17T01:21:18.162Z,0.00
2017-11-17T01:22:18.060Z,0.00
2017-11-17T01:23:17.978Z,0.00
2017-11-17T01:24:17.897Z,0.00
2017-11-17T01:25:17.795Z,0.00
2017-11-17T01:26:17.711Z,0.00
2017-11-17T01:27:17.622Z,0.00
2017-11-17T01:28:17.532Z,0.00
2017-11-17T01:29:17.447Z,0.00
2017-11-17T01:30:17.378Z,0.00
2017-11-17T01:31:17.265Z,0.00
2017-11-17T01:32:17.197Z,0.00
2017-11-17T01:33:17.089Z,0.00
2017-11-17T01:34:17.001Z,0.00
2017-11-17T01:35:16.907Z,0.00
2017-11-17T01:36:16.842Z,0.00
2017-11-17T01:37:16.739Z,0.00
2017-11-17T01:38:16.656Z,0.00
2017-11-17T01:39:16.561Z,0.00
2017-11-17T01:40:16.475Z,0.00
2017-11-17T01:41:16.390Z,0.00
2017-11-17T01:42:16.298Z,0.00
2017-11-17T01:43:16.214Z,0.00
2017-11-17T01:44:16.119Z,0.00
2017-11-17T01:45:16.037Z,0.00
2017-11-17T01:46:15.966Z,0.00
2017-11-17T01:47:15.858Z,0.00
2017-11-17T01:48:15.766Z,0.00
2017-11-17T01:49:15.681Z,0.00
2017-11-17T01:50:15.595Z,0.00
2017-11-17T01:51:15.551Z,0.00
2017-11-17T01:52:15.409Z,0.00
2017-11-17T01:53:15.321Z,0.00
2017-11-17T01:54:15.238Z,0.00
2017-11-17T01:55:15.150Z,0.00
2017-11-17T01:56:15.060Z,0.00
2017-11-17T01:57:14.981Z,0.00
2017-11-17T01:58:14.895Z,0.00
2017-11-17T01:59:14.811Z,0.00
2017-11-17T02:00:14.745Z,0.00
2017-11-17T02:01:14.630Z,0.00
2017-11-17T02:02:14.540Z,0.00
2017-11-17T02:03:14.447Z,0.00
2017-11-17T02:04:14.360Z,0.00
2017-11-17T02:05:14.267Z,0.00
2017-11-17T02:06:14.181Z,0.00
2017-11-17T02:07:14.095Z,0.00
2017-11-17T02:08:14.003Z,0.00
2017-11-17T02:09:13.913Z,0.00
2017-11-17T02:10:13.826Z,0.00
2017-11-17T02:11:13.748Z,0.00
2017-11-17T02:12:13.659Z,0.00
2017-11-17T02:13:13.564Z,0.00
2017-11-17T02:14:13.506Z,0.00
2017-11-17T02:15:13.395Z,0.00
2017-11-17T02:16:13.303Z,0.00
2017-11-17T02:17:13.219Z,0.00
2017-11-17T02:18:13.132Z,0.00
2017-11-17T02:19:13.038Z,0.00
2017-11-17T02:20:12.941Z,0.00
2017-11-17T02:21:12.896Z,0.00
2017-11-17T02:22:12.772Z,0.00
2017-11-17T02:23:12.690Z,0.00
2017-11-17T02:24:12.596Z,0.00
2017-11-17T02:25:12.504Z,0.00
2017-11-17T02:26:12.417Z,0.00
2017-11-17T02:27:12.325Z,0.00
2017-11-17T02:28:12.241Z,0.00
2017-11-17T02:29:12.151Z,0.00
2017-11-17T02:30:12.069Z,0.00
2017-11-17T02:31:11.980Z,0.00
2017-11-17T02:32:11.891Z,0.00
2017-11-17T02:33:11.824Z,0.00
2017-11-17T02:34:11.705Z,0.00
2017-11-17T02:35:11.624Z,0.00
2017-11-17T02:36:11.579Z,0.00
2017-11-17T02:37:11.465Z,0.00
2017-11-17T02:38:11.362Z,0.00
2017-11-17T02:39:11.271Z,0.00
2017-11-17T02:40:11.180Z,0.00
2017-11-17T02:41:11.096Z,0.00
2017-11-17T02:42:11.009Z,0.00
2017-11-17T02:43:10.920Z,0.00
2017-11-17T02:44:10.842Z,0.00
2017-11-17T02:45:10.742Z,0.00
2017-11-17T02:46:10.650Z,0.00
2017-11-17T02:47:10.799Z,0.00
2017-11-17T02:48:10.557Z,0.00
2017-11-17T02:49:10.393Z,0.00
2017-11-17T02:50:10.361Z,0.00
2017-11-17T02:51:10.216Z,0.00
2017-11-17T02:52:10.126Z,0.00
2017-11-17T02:53:10.043Z,0.00
2017-11-17T02:54:09.953Z,0.00
2017-11-17T02:55:09.862Z,0.00
2017-11-17T02:56:09.777Z,0.00
2017-11-17T02:57:09.691Z,0.00
2017-11-17T02:58:09.600Z,0.00
2017-11-17T02:59:09.511Z,0.00
2017-11-17T03:00:09.430Z,0.00
2017-11-17T03:01:09.335Z,0.00
2017-11-17T03:02:09.262Z,0.00
2017-11-17T03:03:09.193Z,0.00
2017-11-17T03:04:09.077Z,0.00
2017-11-17T03:05:08.988Z,0.00
2017-11-17T03:06:08.902Z,0.00
2017-11-17T03:07:08.815Z,0.00
2017-11-17T03:08:08.740Z,0.00
2017-11-17T03:09:08.635Z,0.00
2017-11-17T03:10:08.565Z,0.00
2017-11-17T03:11:08.460Z,0.00
2017-11-17T03:12:08.377Z,0.00
2017-11-17T03:13:08.289Z,0.00
2017-11-17T03:14:08.216Z,0.00
2017-11-17T03:15:08.118Z,0.00
2017-11-17T03:16:08.026Z,0.00
2017-11-17T03:17:07.936Z,0.00
2017-11-17T03:18:07.899Z,0.00
2017-11-17T03:19:07.767Z,0.00
2017-11-17T03:20:07.681Z,0.00
2017-11-17T03:21:07.585Z,0.00
2017-11-17T03:22:07.498Z,0.00
2017-11-17T03:23:07.408Z,0.00
2017-11-17T03:24:07.336Z,0.00
2017-11-17T03:25:07.236Z,0.00
2017-11-17T03:26:07.147Z,0.00
2017-11-17T03:27:07.065Z,0.00
2017-11-17T03:28:06.977Z,0.00
2017-11-17T03:29:06.886Z,0.00
2017-11-17T03:30:06.801Z,0.00
2017-11-17T03:31:06.707Z,0.00
2017-11-17T03:32:06.623Z,0.00
2017-11-17T03:33:06.533Z,0.00
2017-11-17T03:34:06.446Z,0.00
2017-11-17T03:35:06.363Z,0.00
2017-11-17T03:36:06.272Z,0.00
2017-11-17T03:37:06.182Z,0.00
2017-11-17T03:38:06.093Z,0.00
2017-11-17T03:39:06.004Z,0.00
2017-11-17T03:40:05.918Z,0.00
2017-11-17T03:41:05.827Z,0.00
2017-11-17T03:42:05.756Z,0.00
2017-11-17T03:43:05.675Z,0.00
2017-11-17T03:44:05.563Z,0.00
2017-11-17T03:45:05.473Z,0.00
2017-11-17T03:46:05.387Z,0.00
2017-11-17T03:47:05.298Z,0.00
2017-11-17T03:48:05.221Z,0.00
2017-11-17T03:49:05.133Z,0.00
2017-11-17T03:50:05.040Z,0.00
2017-11-17T03:51:04.947Z,0.00
2017-11-17T03:52:04.867Z,0.00
2017-11-17T03:53:04.776Z,0.00
2017-11-17T03:54:04.700Z,0.00
2017-11-17T03:55:04.605Z,0.00
2017-11-17T03:56:04.512Z,0.00
2017-11-17T03:57:04.427Z,0.00
2017-11-17T03:58:04.349Z,0.00
2017-11-17T03:59:04.252Z,0.00
2017-11-17T04:00:04.183Z,0.00
2017-11-17T04:01:04.078Z,0.00
2017-11-17T04:02:03.988Z,0.00
2017-11-17T04:03:03.893Z,0.00
2017-11-17T04:04:03.811Z,0.00
2017-11-17T04:05:03.765Z,0.00
2017-11-17T04:06:03.641Z,0.00
2017-11-17T04:07:03.550Z,0.00
2017-11-17T04:08:03.460Z,0.00
2017-11-17T04:09:03.376Z,0.00
2017-11-17T04:10:03.284Z,0.00
2017-11-17T04:11:03.198Z,0.00
2017-11-17T04:12:03.115Z,0.00
2017-11-17T04:13:03.018Z,0.00
2017-11-17T04:14:02.939Z,0.00
2017-11-17T04:15:02.853Z,0.00
2017-11-17T04:16:02.759Z,0.00
2017-11-17T04:17:02.681Z,0.00
2017-11-17T04:18:02.581Z,0.00
2017-11-17T04:19:02.488Z,0.00
2017-11-17T04:20:02.404Z,0.00
2017-11-17T04:21:02.319Z,0.00
2017-11-17T04:22:02.232Z,0.00
2017-11-17T04:23:02.137Z,0.00
2017-11-17T04:24:02.054Z,0.00
2017-11-17T04:25:01.971Z,0.00
2017-11-17T04:26:01.872Z,0.00
2017-11-17T04:27:01.913Z,0.00
2017-11-17T04:28:01.696Z,0.00
2017-11-17T04:29:01.607Z,0.00
2017-11-17T04:30:01.541Z,0.00
2017-11-17T04:31:01.445Z,0.00
2017-11-17T04:32:01.358Z,0.00
2017-11-17T04:33:01.262Z,0.00
2017-11-17T04:34:01.166Z,0.00
2017-11-17T04:35:01.085Z,0.00
2017-11-17T04:36:00.985Z,0.00
2017-11-17T04:37:00.897Z,0.00
2017-11-17T04:38:00.811Z,0.00
2017-11-17T04:39:00.721Z,0.00
2017-11-17T04:40:00.641Z,0.00
2017-11-17T04:41:00.544Z,0.00
2017-11-17T04:42:00.451Z,0.00
2017-11-17T04:43:00.364Z,0.00
2017-11-17T04:44:00.285Z,0.00
2017-11-17T04:45:00.197Z,0.00
2017-11-17T04:46:00.106Z,0.00
2017-11-17T04:47:00.035Z,0.00
2017-11-17T04:47:59.932Z,0.00
2017-11-17T04:48:59.832Z,0.00
2017-11-17T04:49:59.748Z,0.00
2017-11-17T04:50:59.659Z,0.00
2017-11-17T04:51:59.575Z,0.00
2017-11-17T04:52:59.490Z,0.00
2017-11-17T04:53:59.400Z,0.00
2017-11-17T04:54:59.303Z,0.00
2017-11-17T04:55:59.214Z,0.00
2017-11-17T04:56:59.138Z,0.00
2017-11-17T04:57:59.042Z,0.00
2017-11-17T04:58:58.950Z,0.00
2017-11-17T04:59:58.865Z,0.00
2017-11-17T05:00:58.780Z,0.00
2017-11-17T05:01:58.689Z,0.00
2017-11-17T05:02:58.613Z,0.00
2017-11-17T05:03:58.513Z,0.00
2017-11-17T05:04:58.440Z,0.00
2017-11-17T05:05:58.332Z,0.00
2017-11-17T05:06:58.242Z,0.00
2017-11-17T05:07:58.154Z,0.00
2017-11-17T05:08:58.095Z,0.00
2017-11-17T05:09:57.983Z,0.00
2017-11-17T05:10:57.914Z,0.00
2017-11-17T05:11:57.817Z,0.00
2017-11-17T05:12:57.714Z,0.00
2017-11-17T05:13:57.634Z,0.00
2017-11-17T05:14:57.542Z,0.00
2017-11-17T05:15:57.447Z,0.00
2017-11-17T05:16:57.357Z,0.00
2017-11-17T05:17:57.285Z,0.00
2017-11-17T05:18:57.178Z,0.00
2017-11-17T05:19:57.103Z,0.00
2017-11-17T05:20:57.020Z,0.00
2017-11-17T05:21:56.917Z,0.00
2017-11-17T05:22:56.830Z,0.00
2017-11-17T05:23:56.734Z,0.00
2017-11-17T05:24:56.653Z,0.00
2017-11-17T05:25:56.565Z,0.00
2017-11-17T05:26:56.471Z,0.00
2017-11-17T05:27:56.392Z,0.00
2017-11-17T05:28:56.309Z,0.00
2017-11-17T05:29:56.205Z,0.00
2017-11-17T05:30:56.155Z,0.00
2017-11-17T05:31:56.037Z,0.00
2017-11-17T05:32:55.962Z,0.00
2017-11-17T05:33:55.863Z,0.00
2017-11-17T05:34:55.769Z,0.00
2017-11-17T05:35:55.701Z,0.00
2017-11-17T05:36:55.597Z,0.00
2017-11-17T05:37:55.509Z,0.00
2017-11-17T05:38:55.418Z,0.00
2017-11-17T05:39:55.350Z,0.00
2017-11-17T05:40:55.241Z,0.00
2017-11-17T05:41:55.159Z,0.00
2017-11-17T05:42:55.080Z,0.00
2017-11-17T05:43:54.980Z,0.00
2017-11-17T05:44:54.894Z,0.00
2017-11-17T05:45:54.812Z,0.00
2017-11-17T05:46:54.723Z,0.00
2017-11-17T05:47:54.633Z,0.00
2017-11-17T05:48:54.573Z,0.00
2017-11-17T05:49:54.456Z,0.00
2017-11-17T05:50:54.377Z,0.00
2017-11-17T05:51:54.283Z,0.00
2017-11-17T05:52:54.191Z,0.00
2017-11-17T05:53:54.107Z,0.00
2017-11-17T05:54:54.020Z,0.00
2017-11-17T05:55:53.958Z,0.00
2017-11-17T05:56:53.850Z,0.00
2017-11-17T05:57:53.758Z,0.00
2017-11-17T05:58:53.668Z,0.00
2017-11-17T05:59:53.573Z,0.00
2017-11-17T06:00:53.492Z,0.00
2017-11-17T06:01:53.403Z,0.00
2017-11-17T06:02:53.314Z,0.00
2017-11-17T06:03:53.235Z,0.00
2017-11-17T06:04:53.144Z,0.00
2017-11-17T06:05:53.141Z,0.00
2017-11-17T06:06:52.962Z,0.00
2017-11-17T06:07:52.921Z,0.00
2017-11-17T06:08:52.791Z,0.00
2017-11-17T06:09:52.695Z,0.00
2017-11-17T06:10:52.614Z,0.00
2017-11-17T06:11:52.528Z,0.00
2017-11-17T06:12:52.440Z,0.00
2017-11-17T06:13:52.353Z,0.00
2017-11-17T06:14:52.267Z,0.00
2017-11-17T06:15:52.179Z,0.00
2017-11-17T06:16:52.088Z,0.00
2017-11-17T06:17:51.997Z,0.00
2017-11-17T06:18:51.910Z,0.00
2017-11-17T06:19:51.820Z,0.00
2017-11-17T06:20:51.740Z,0.00
2017-11-17T06:21:51.646Z,0.00
2017-11-17T06:22:51.563Z,0.00
2017-11-17T06:23:51.474Z,0.00
2017-11-17T06:24:51.377Z,0.00
2017-11-17T06:25:51.299Z,0.00
2017-11-17T06:26:51.214Z,0.00
2017-11-17T06:27:51.118Z,0.00
2017-11-17T06:28:51.025Z,0.00
2017-11-17T06:29:50.949Z,0.00
2017-11-17T06:30:50.850Z,0.00
2017-11-17T06:31:50.772Z,0.00
2017-11-17T06:32:50.678Z,0.00
2017-11-17T06:33:50.590Z,0.00
2017-11-17T06:34:50.503Z,0.00
2017-11-17T06:35:50.415Z,0.00
2017-11-17T06:36:50.327Z,0.00
2017-11-17T06:37:50.238Z,0.00
2017-11-17T06:38:50.156Z,0.00
2017-11-17T06:39:50.062Z,0.00
2017-11-17T06:40:49.971Z,0.00
2017-11-17T06:41:49.885Z,0.00
2017-11-17T06:42:49.798Z,0.00
2017-11-17T06:43:49.710Z,0.00
2017-11-17T06:44:49.631Z,0.00
2017-11-17T06:45:49.535Z,0.00
2017-11-17T06:46:49.436Z,0.00
2017-11-17T06:47:49.346Z,0.00
2017-11-17T06:48:49.271Z,0.00
2017-11-17T06:49:49.179Z,0.00
2017-11-17T06:50:49.084Z,0.00
2017-11-17T06:51:48.994Z,0.00
2017-11-17T06:52:48.904Z,0.00
2017-11-17T06:53:48.834Z,0.00
2017-11-17T06:54:48.735Z,0.00
2017-11-17T06:55:48.638Z,0.00
2017-11-17T06:56:48.551Z,5.63
2017-11-17T06:57:48.463Z,5.63
2017-11-17T06:58:48.378Z,5.63
2017-11-17T06:59:48.280Z,5.63
2017-11-17T07:00:48.203Z,5.63
2017-11-17T07:01:48.102Z,5.63
2017-11-17T07:02:48.019Z,5.63
2017-11-17T07:03:47.927Z,5.63
2017-11-17T07:04:47.836Z,5.63
2017-11-17T07:05:47.760Z,5.63
2017-11-17T07:06:47.659Z,5.63
2017-11-17T07:07:47.581Z,5.63
2017-11-17T07:08:47.500Z,11.25
2017-11-17T07:09:47.415Z,11.25
2017-11-17T07:10:47.305Z,11.25
2017-11-17T07:11:47.220Z,5.63
2017-11-17T07:12:47.129Z,5.63
2017-11-17T07:13:47.044Z,5.63
2017-11-17T07:14:46.952Z,5.63
2017-11-17T07:15:46.878Z,5.63
2017-11-17T07:16:46.775Z,5.63
2017-11-17T07:17:46.684Z,5.63
2017-11-17T07:18:46.607Z,11.25
2017-11-17T07:19:46.520Z,11.25
2017-11-17T07:20:46.421Z,11.25
2017-11-17T07:21:46.334Z,11.25
2017-11-17T07:22:46.257Z,11.25
2017-11-17T07:23:46.154Z,11.25
2017-11-17T07:24:46.071Z,11.25
2017-11-17T07:25:45.996Z,11.25
2017-11-17T07:26:45.993Z,16.88
2017-11-17T07:27:45.812Z,16.88
2017-11-17T07:28:45.718Z,16.88
2017-11-17T07:29:45.646Z,16.88
2017-11-17T07:30:45.540Z,16.88
2017-11-17T07:31:45.447Z,16.88
2017-11-17T07:32:45.371Z,16.88
2017-11-17T07:33:45.310Z,16.88
2017-11-17T07:34:45.194Z,16.88
2017-11-17T07:35:45.098Z,16.88
2017-11-17T07:36:45.017Z,16.88
2017-11-17T07:37:44.924Z,16.88
2017-11-17T07:38:44.846Z,16.88
2017-11-17T07:39:44.756Z,16.88
2017-11-17T07:40:44.665Z,22.50
2017-11-17T07:41:44.568Z,22.50
2017-11-17T07:42:44.497Z,22.50
2017-11-17T07:43:44.397Z,16.88
2017-11-17T07:44:44.310Z,16.88
2017-11-17T07:45:44.216Z,16.88
2017-11-17T07:46:44.129Z,16.88
2017-11-17T07:47:44.047Z,22.50
2017-11-17T07:48:43.967Z,22.50
2017-11-17T07:49:43.869Z,22.50
2017-11-17T07:50:43.774Z,22.50
2017-11-17T07:51:43.703Z,22.50
2017-11-17T07:52:43.616Z,28.13
2017-11-17T07:53:43.517Z,28.13
2017-11-17T07:54:43.428Z,28.13
2017-11-17T07:55:43.345Z,28.13
2017-11-17T07:56:43.252Z,28.13
2017-11-17T07:57:43.163Z,33.75
2017-11-17T07:58:43.078Z,33.75
2017-11-17T07:59:42.989Z,33.75
2017-11-17T08:00:42.905Z,39.38
2017-11-17T08:01:42.817Z,39.38
2017-11-17T08:02:42.723Z,45.00
2017-11-17T08:03:42.635Z,45.00
2017-11-17T08:04:42.550Z,50.63
2017-11-17T08:05:42.479Z,50.63
2017-11-17T08:06:42.378Z,56.25
2017-11-17T08:07:42.284Z,56.25
2017-11-17T08:08:42.198Z,61.88
2017-11-17T08:09:42.123Z,67.50
2017-11-17T08:10:42.028Z,61.88
2017-11-17T08:11:41.935Z,67.50
2017-11-17T08:12:41.845Z,67.50
2017-11-17T08:13:41.766Z,67.50
2017-11-17T08:14:41.675Z,67.50
2017-11-17T08:15:41.603Z,67.50
2017-11-17T08:16:41.499Z,67.50
2017-11-17T08:17:41.415Z,73.13
2017-11-17T08:18:41.342Z,73.13
2017-11-17T08:19:41.248Z,84.38
2017-11-17T08:20:41.148Z,84.38
2017-11-17T08:21:41.061Z,84.38
2017-11-17T08:22:40.996Z,90.00
2017-11-17T08:23:40.893Z,90.00
2017-11-17T08:24:40.821Z,90.00
2017-11-17T08:25:40.717Z,90.00
2017-11-17T08:26:40.625Z,90.00
2017-11-17T08:27:40.577Z,90.00
2017-11-17T08:28:40.444Z,84.38
2017-11-17T08:29:40.366Z,78.75
2017-11-17T08:30:40.296Z,73.13
2017-11-17T08:31:40.187Z,67.50
2017-11-17T08:32:40.101Z,67.50
2017-11-17T08:33:40.012Z,67.50
2017-11-17T08:34:39.928Z,67.50
2017-11-17T08:35:39.840Z,67.50
2017-11-17T08:36:39.753Z,67.50
2017-11-17T08:37:39.668Z,61.88
2017-11-17T08:38:39.582Z,61.88
2017-11-17T08:39:39.500Z,61.88
2017-11-17T08:40:39.409Z,56.25
2017-11-17T08:41:39.320Z,56.25
2017-11-17T08:42:39.233Z,50.63
2017-11-17T08:43:39.150Z,50.63
2017-11-17T08:44:39.061Z,45.00
2017-11-17T08:45:38.993Z,50.63
2017-11-17T08:46:38.933Z,50.63
2017-11-17T08:47:38.801Z,50.63
2017-11-17T08:48:38.709Z,50.63
2017-11-17T08:49:38.625Z,50.63
2017-11-17T08:50:38.536Z,50.63
2017-11-17T08:51:38.467Z,56.25
2017-11-17T08:52:38.361Z,56.25
2017-11-17T08:53:38.267Z,56.25
2017-11-17T08:54:38.188Z,56.25
2017-11-17T08:55:38.101Z,50.63
2017-11-17T08:56:38.005Z,50.63
2017-11-17T08:57:37.971Z,50.63
2017-11-17T08:58:37.844Z,45.00
2017-11-17T08:59:37.747Z,45.00
2017-11-17T09:00:37.664Z,45.00
2017-11-17T09:01:37.575Z,45.00
2017-11-17T09:02:37.488Z,45.00
2017-11-17T09:03:37.441Z,45.00
2017-11-17T09:04:37.322Z,45.00
2017-11-17T09:05:37.225Z,45.00
2017-11-17T09:06:37.149Z,45.00
2017-11-17T09:07:37.055Z,45.00
2017-11-17T09:08:36.966Z,45.00
2017-11-17T09:09:36.902Z,45.00
2017-11-17T09:10:36.797Z,45.00
2017-11-17T09:11:36.707Z,45.00
2017-11-17T09:12:36.614Z,45.00
2017-11-17T09:13:36.533Z,45.00
2017-11-17T09:14:36.449Z,45.00
2017-11-17T09:15:36.362Z,45.00
2017-11-17T09:16:36.267Z,45.00
2017-11-17T09:17:36.181Z,45.00
2017-11-17T09:18:36.142Z,45.00
2017-11-17T09:19:36.011Z,45.00
2017-11-17T09:20:35.925Z,45.00
2017-11-17T09:21:35.861Z,45.00
2017-11-17T09:22:35.739Z,45.00
2017-11-17T09:23:35.649Z,45.00
2017-11-17T09:24:35.570Z,45.00
2017-11-17T09:25:35.484Z,45.00
2017-11-17T09:26:35.410Z,39.38
2017-11-17T09:27:35.321Z,39.38
2017-11-17T09:28:35.228Z,39.38
2017-11-17T09:29:35.139Z,39.38
2017-11-17T09:30:35.050Z,39.38
2017-11-17T09:31:34.964Z,39.38
2017-11-17T09:32:34.874Z,45.00
2017-11-17T09:33:34.784Z,45.00
2017-11-17T09:34:34.697Z,45.00
2017-11-17T09:35:34.617Z,50.63
2017-11-17T09:36:34.569Z,56.25
2017-11-17T09:37:34.463Z,56.25
2017-11-17T09:38:34.347Z,61.88
2017-11-17T09:39:34.283Z,61.88
2017-11-17T09:40:34.180Z,61.88
2017-11-17T09:41:34.091Z,61.88
2017-11-17T09:42:33.998Z,61.88
2017-11-17T09:43:33.920Z,67.50
2017-11-17T09:44:33.823Z,67.50
2017-11-17T09:45:33.850Z,67.50
2017-11-17T09:46:33.657Z,67.50
2017-11-17T09:47:33.567Z,67.50
2017-11-17T09:48:33.480Z,61.88
2017-11-17T09:49:33.416Z,61.88
2017-11-17T09:50:33.310Z,61.88
2017-11-17T09:51:33.228Z,61.88
2017-11-17T09:52:33.137Z,61.88
2017-11-17T09:53:33.048Z,61.88
2017-11-17T09:54:32.952Z,67.50
2017-11-17T09:55:32.863Z,67.50
2017-11-17T09:56:32.779Z,67.50
2017-11-17T09:57:32.698Z,73.13
2017-11-17T09:58:32.607Z,73.13
2017-11-17T09:59:32.514Z,73.13
2017-11-17T10:00:32.442Z,73.13
2017-11-17T10:01:32.345Z,73.13
2017-11-17T10:02:32.262Z,73.13
2017-11-17T10:03:32.177Z,73.13
2017-11-17T10:04:32.087Z,73.13
2017-11-17T10:05:32.026Z,73.13
2017-11-17T10:06:31.923Z,78.75
2017-11-17T10:07:31.820Z,78.75
2017-11-17T10:08:31.735Z,84.38
2017-11-17T10:09:31.643Z,90.00
2017-11-17T10:10:31.565Z,90.00
2017-11-17T10:11:31.465Z,95.63
2017-11-17T10:12:31.379Z,95.63
2017-11-17T10:13:31.295Z,90.00
2017-11-17T10:14:31.218Z,90.00
2017-11-17T10:15:31.120Z,90.00
2017-11-17T10:16:31.042Z,95.63
2017-11-17T10:17:30.983Z,95.63
2017-11-17T10:18:30.883Z,95.63
2017-11-17T10:19:30.792Z,101.25
2017-11-17T10:20:30.703Z,101.25
2017-11-17T10:21:30.597Z,101.25
2017-11-17T10:22:30.508Z,101.25
2017-11-17T10:23:30.423Z,101.25
2017-11-17T10:24:30.337Z,101.25
2017-11-17T10:25:30.241Z,101.25
2017-11-17T10:26:30.157Z,95.63
2017-11-17T10:27:30.073Z,95.63
2017-11-17T10:28:29.996Z,90.00
2017-11-17T10:29:29.912Z,90.00
2017-11-17T10:30:29.814Z,90.00
2017-11-17T10:31:29.723Z,90.00
2017-11-17T10:32:29.641Z,90.00
2017-11-17T10:33:29.549Z,90.00
2017-11-17T10:34:29.483Z,84.38
2017-11-17T10:35:29.369Z,78.75
2017-11-17T10:36:29.298Z,78.75
2017-11-17T10:37:29.214Z,78.75
2017-11-17T10:38:29.117Z,73.13
2017-11-17T10:39:29.025Z,78.75
2017-11-17T10:40:28.932Z,78.75
2017-11-17T10:41:28.861Z,90.00
2017-11-17T10:42:28.774Z,101.25
2017-11-17T10:43:28.676Z,112.50
2017-11-17T10:44:28.587Z,123.75
2017-11-17T10:45:28.501Z,129.38
2017-11-17T10:46:28.412Z,135.00
2017-11-17T10:47:28.320Z,140.63
2017-11-17T10:48:28.236Z,146.25
2017-11-17T10:49:28.158Z,151.88
2017-11-17T10:50:28.067Z,157.50
2017-11-17T10:51:27.976Z,163.13
2017-11-17T10:52:27.886Z,168.75
2017-11-17T10:53:27.812Z,174.38
2017-11-17T10:54:27.844Z,174.38
2017-11-17T10:55:27.639Z,174.38
2017-11-17T10:56:27.538Z,174.38
2017-11-17T10:57:27.460Z,174.38
2017-11-17T10:58:27.362Z,168.75
2017-11-17T10:59:27.286Z,168.75
2017-11-17T11:00:27.194Z,163.13
2017-11-17T11:01:27.108Z,163.13
2017-11-17T11:02:27.017Z,163.13
2017-11-17T11:03:26.929Z,163.13
2017-11-17T11:04:26.836Z,168.75
2017-11-17T11:05:26.763Z,180.00
2017-11-17T11:06:26.682Z,185.63
2017-11-17T11:07:26.599Z,185.63
2017-11-17T11:08:26.561Z,185.63
2017-11-17T11:09:26.412Z,185.63
2017-11-17T11:10:26.320Z,191.25
2017-11-17T11:11:26.243Z,196.88
2017-11-17T11:12:26.154Z,202.50
2017-11-17T11:13:26.060Z,208.13
2017-11-17T11:14:25.973Z,213.75
2017-11-17T11:15:25.886Z,219.38
2017-11-17T11:16:25.810Z,230.63
2017-11-17T11:17:25.721Z,236.25
2017-11-17T11:18:25.639Z,247.50
2017-11-17T11:19:25.543Z,258.75
2017-11-17T11:20:25.466Z,270.00
2017-11-17T11:21:25.378Z,264.38
2017-11-17T11:22:25.284Z,258.75
2017-11-17T11:23:25.200Z,258.75
2017-11-17T11:24:25.112Z,258.75
2017-11-17T11:25:25.028Z,253.13
2017-11-17T11:26:24.938Z,253.13
2017-11-17T11:27:24.851Z,258.75
2017-11-17T11:28:24.767Z,253.13
2017-11-17T11:29:24.677Z,241.88
2017-11-17T11:30:24.607Z,230.63
2017-11-17T11:31:24.499Z,225.00
2017-11-17T11:32:24.416Z,219.38
2017-11-17T11:33:24.336Z,219.38
2017-11-17T11:34:24.246Z,230.63
2017-11-17T11:35:24.164Z,253.13
2017-11-17T11:36:24.070Z,275.63
2017-11-17T11:37:23.983Z,286.88
2017-11-17T11:38:23.938Z,281.25
2017-11-17T11:39:23.820Z,258.75
2017-11-17T11:40:23.725Z,225.00
2017-11-17T11:41:23.648Z,202.50
2017-11-17T11:42:23.554Z,196.88
2017-11-17T11:43:23.464Z,202.50
2017-11-17T11:44:23.380Z,202.50
2017-11-17T11:45:23.320Z,196.88
2017-11-17T11:46:23.220Z,191.25
2017-11-17T11:47:23.115Z,191.25
2017-11-17T11:48:23.034Z,196.88
2017-11-17T11:49:22.951Z,196.88
2017-11-17T11:50:22.862Z,208.13
2017-11-17T11:51:22.785Z,213.75
2017-11-17T11:52:22.687Z,202.50
2017-11-17T11:53:22.607Z,191.25
2017-11-17T11:54:22.511Z,185.63
2017-11-17T11:55:22.438Z,191.25
2017-11-17T11:56:22.341Z,208.13
2017-11-17T11:57:22.258Z,219.38
2017-11-17T11:58:22.167Z,219.38
2017-11-17T11:59:22.082Z,225.00
2017-11-17T12:00:22.001Z,230.63
2017-11-17T12:01:21.909Z,253.13
2017-11-17T12:02:21.821Z,275.63
2017-11-17T12:03:21.763Z,298.13
2017-11-17T12:04:21.773Z,309.38
2017-11-17T12:05:21.583Z,309.38
2017-11-17T12:06:21.528Z,298.13
2017-11-17T12:07:21.427Z,292.50
2017-11-17T12:08:21.310Z,270.00
2017-11-17T12:09:21.222Z,253.13
2017-11-17T12:10:21.144Z,225.00
2017-11-17T12:11:21.073Z,196.88
2017-11-17T12:12:20.988Z,174.38
2017-11-17T12:13:20.884Z,163.13
2017-11-17T12:14:20.789Z,157.50
2017-11-17T12:15:20.702Z,157.50
2017-11-17T12:16:20.619Z,157.50
2017-11-17T12:17:20.537Z,157.50
2017-11-17T12:18:20.448Z,157.50
2017-11-17T12:19:20.362Z,151.88
2017-11-17T12:20:20.284Z,146.25
2017-11-17T12:21:20.211Z,146.25
2017-11-17T12:22:20.109Z,140.63
2017-11-17T12:23:20.020Z,140.63
2017-11-17T12:24:19.937Z,140.63
2017-11-17T12:25:19.844Z,146.25
2017-11-17T12:26:19.760Z,146.25
2017-11-17T12:27:19.681Z,146.25
2017-11-17T12:28:19.592Z,146.25
2017-11-17T12:29:19.511Z,146.25
2017-11-17T12:30:19.447Z,146.25
2017-11-17T12:31:19.341Z,140.63
2017-11-17T12:32:19.247Z,146.25
2017-11-17T12:33:19.170Z,135.00
2017-11-17T12:34:19.077Z,135.00
2017-11-17T12:35:19.002Z,135.00
2017-11-17T12:36:18.902Z,140.63
2017-11-17T12:37:18.812Z,146.25
2017-11-17T12:38:18.746Z,151.88
2017-11-17T12:39:18.640Z,157.50
2017-11-17T12:40:18.555Z,163.13
2017-11-17T12:41:18.469Z,174.38
2017-11-17T12:42:18.387Z,180.00
2017-11-17T12:43:18.302Z,185.63
2017-11-17T12:44:18.209Z,191.25
2017-11-17T12:45:18.120Z,185.63
2017-11-17T12:46:18.038Z,185.63
2017-11-17T12:47:17.954Z,185.63
2017-11-17T12:48:17.877Z,191.25
2017-11-17T12:49:17.789Z,196.88
2017-11-17T12:50:17.699Z,202.50
2017-11-17T12:51:17.641Z,202.50
2017-11-17T12:52:17.526Z,191.25
2017-11-17T12:53:17.441Z,180.00
2017-11-17T12:54:17.352Z,168.75
2017-11-17T12:55:17.267Z,163.13
2017-11-17T12:56:17.182Z,157.50
2017-11-17T12:57:17.099Z,163.13
2017-11-17T12:58:17.027Z,180.00
2017-11-17T12:59:16.941Z,202.50
2017-11-17T13:00:16.834Z,213.75
2017-11-17T13:01:16.765Z,225.00